Latest Weather Observations for Redcliffe

IDQ60801

Issued at 11:32 am EST Friday 20 January 2017 (issued every 30 minutes, with the page automatically refreshed every 10 minutes)

About weather observations | Map of weather stations | Latest weather observations for QLD | Other Formats
Station Details ID: 040958 Name: REDCLIFFE Lat: -27.22 Lon: 153.09 Height: 12.6 m
Data from the previous 72 hours. | See also: Recent months at Redcliffe
Date/Time
EST
Temp
°C
App
Temp
°C
Dew
Point
°C
Rel
Hum
%
Delta-T
°C
Wind Press
QNH
hPa
Press
MSL
hPa
Rain since
9am
mm
Dir  Spd
km/h
Gust
km/h
Spd
kts
Gust
kts
20/11:30am 29.6 30.7 21.3 61 5.6 ENE 17 19 9 10 1007.4 1007.3 0.0
20/11:00am 29.0 30.0 20.2 59 5.8 NE 15 17 8 9 1007.9 1007.8 0.0
20/10:30am 29.2 30.7 20.6 59 5.7 NE 13 17 7 9 1008.3 1008.2 0.0
20/10:00am 29.3 30.4 20.5 59 5.8 NE 15 17 8 9 1008.7 1008.6 0.0
20/09:30am 27.9 29.1 19.9 61 5.2 NE 13 17 7 9 1009.3 1009.2 0.0
20/09:00am 28.0 31.7 20.8 65 4.8 ENE 2 9 1 5 1009.5 1009.4 0.0
20/08:30am 27.0 29.2 20.3 66 4.4 NW 9 13 5 7 1009.3 1009.2 0.0
20/08:00am 26.2 28.0 20.3 70 3.9 WSW 11 13 6 7 1009.6 1009.5 0.0
20/07:30am 25.9 28.0 20.9 74 3.3 WSW 11 15 6 8 1010.0 1009.9 0.0
20/07:00am 24.9 26.5 20.8 78 2.7 W 13 19 7 10 1009.9 1009.8 0.0
20/06:30am 24.4 26.1 20.9 81 2.3 WSW 13 17 7 9 1009.9 1009.8 0.0
20/06:00am 24.1 25.6 20.6 81 2.3 WSW 13 17 7 9 1009.5 1009.4 0.0
20/05:30am 24.1 26.0 20.6 81 2.3 W 11 13 6 7 1009.4 1009.3 0.0
20/05:00am 24.1 26.4 20.6 81 2.3 SSW 9 17 5 9 1009.0 1008.9 0.0
20/04:30am 24.5 25.4 20.8 80 2.4 SE 17 22 9 12 1008.5 1008.4 0.0
20/04:00am 24.6 27.4 20.9 80 2.4 ESE 7 13 4 7 1008.4 1008.3 0.0
20/03:30am 25.5 25.4 20.7 75 3.1 E 22 28 12 15 1008.5 1008.4 0.0
20/03:00am 25.8 26.5 19.7 69 4.0 SE 15 19 8 10 1008.4 1008.3 0.0
20/02:30am 25.9 25.7 19.8 69 4.0 ESE 20 26 11 14 1008.5 1008.4 0.0
20/02:00am 25.9 26.0 20.0 70 3.8 ESE 19 22 10 12 1008.9 1008.8 0.0
20/01:30am 25.9 26.3 19.8 69 4.0 ESE 17 20 9 11 1009.4 1009.3 0.0
20/01:00am 25.9 25.6 19.1 66 4.4 ESE 19 22 10 12 1009.4 1009.3 0.0
20/12:30am 25.9 25.4 19.1 66 4.4 SE 20 26 11 14 1009.4 1009.3 0.0
20/12:00am 25.9 24.8 19.5 68 4.1 SE 24 32 13 17 1010.0 1009.9 0.0
 
Date/Time
EST
Temp
°C
App
Temp
°C
Dew
Point
°C
Rel
Hum
%
Delta-T
°C
Wind Press
QNH
hPa
Press
MSL
hPa
Rain since
9am
mm
Dir  Spd
km/h
Gust
km/h
Spd
kts
Gust
kts
19/11:30pm 25.9 24.8 19.5 68 4.1 SE 24 30 13 16 1010.3 1010.2 0.0
19/11:00pm 25.8 23.9 19.4 67 4.1 SE 28 32 15 17 1010.6 1010.5 0.0
19/10:30pm 25.8 23.9 19.4 67 4.1 SE 28 35 15 19 1010.5 1010.4 0.0
19/10:00pm 26.0 24.5 19.4 67 4.3 SE 26 30 14 16 1011.1 1011.0 0.0
19/09:30pm 26.0 24.1 19.4 67 4.3 SE 28 35 15 19 1011.3 1011.2 0.0
19/09:00pm 26.0 24.4 19.2 66 4.4 SE 26 30 14 16 1011.5 1011.4 0.0
19/08:30pm 26.0 24.5 19.4 67 4.3 SE 26 33 14 18 1011.2 1011.1 0.0
19/08:00pm 26.1 23.7 19.2 65 4.4 SE 30 33 16 18 1010.8 1010.7 0.0
19/07:30pm 26.2 23.8 19.1 65 4.6 SE 30 33 16 18 1010.5 1010.4 0.0
19/07:00pm 26.2 23.3 19.3 65 4.4 SE 33 39 18 21 1010.1 1010.0 0.0
19/06:30pm 26.4 23.8 19.5 66 4.5 SE 32 37 17 20 1010.0 1009.9 0.0
19/06:00pm 26.7 23.2 19.6 65 4.6 SE 37 43 20 23 1009.7 1009.6 0.0
19/05:30pm 27.1 24.0 19.7 64 4.8 SE 35 41 19 22 1009.5 1009.4 0.0
19/05:00pm 27.1 23.6 19.7 64 4.8 SE 37 43 20 23 1009.0 1008.9 0.0
19/04:30pm 27.5 23.6 19.6 62 5.1 SE 39 44 21 24 1008.7 1008.6 0.0
19/04:00pm 28.0 24.5 19.5 60 5.5 SE 37 44 20 24 1008.8 1008.7 0.0
19/03:30pm 27.8 24.4 19.1 59 5.6 SE 35 41 19 22 1008.9 1008.8 0.0
19/03:00pm 28.2 24.6 19.4 59 5.7 SE 37 43 20 23 1009.1 1009.0 0.0
19/02:30pm 28.2 24.2 19.4 59 5.7 SE 39 46 21 25 1009.5 1009.4 0.0
19/02:00pm 28.4 24.4 19.3 57 5.9 SE 39 46 21 25 1009.9 1009.8 0.0
19/01:30pm 28.4 24.5 19.6 59 5.7 SE 39 46 21 25 1010.1 1010.0 0.0
19/01:00pm 28.1 23.6 19.1 58 5.8 SE 41 48 22 26 1010.3 1010.2 0.0
19/12:30pm 28.3 23.8 19.0 57 6.0 SE 41 48 22 26 1010.5 1010.4 0.0
19/12:00pm 27.8 23.0 18.5 57 6.0 SE 41 50 22 27 1010.6 1010.5 0.0
19/11:30am 27.8 23.8 19.3 60 5.5 SE 39 44 21 24 1010.6 1010.5 0.0
19/11:00am 28.3 25.0 20.1 61 5.4 SE 37 43 20 23 1010.8 1010.7 0.0
19/10:30am 28.2 25.1 19.7 60 5.5 SE 35 39 19 21 1010.8 1010.7 0.0
19/10:00am 28.4 25.7 20.4 62 5.3 SE 35 41 19 22 1010.9 1010.8 0.0
19/09:30am 28.7 25.7 20.7 62 5.3 SE 37 43 20 23 1010.9 1010.8 0.0
19/09:00am 29.6 27.6 21.8 63 5.3 SE 35 41 19 22 1011.0 1010.9 0.0
19/08:30am 28.4 26.6 21.2 65 4.8 SE 32 33 17 18 1010.9 1010.8 0.0
19/08:00am 28.0 26.4 20.8 65 4.8 SSE 30 33 16 18 1010.8 1010.7 0.0
19/07:30am 27.7 25.8 21.0 67 4.4 SE 32 35 17 19 1010.7 1010.6 0.0
19/07:00am 28.1 26.2 21.4 67 4.5 SE 33 37 18 20 1010.4 1010.3 0.0
19/06:30am 27.8 26.0 21.6 69 4.1 SE 33 39 18 21 1010.3 1010.2 0.0
19/06:00am 27.5 25.7 21.5 70 4.0 ESE 33 41 18 22 1009.8 1009.7 0.0
19/05:30am 27.4 26.3 22.4 74 3.4 ESE 32 37 17 20 1009.6 1009.5 0.0
19/05:00am 26.6 25.8 21.6 74 3.3 ENE 28 30 15 16 1009.0 1008.9 0.0
19/04:30am 26.8 26.5 21.8 74 3.3 ESE 26 32 14 17 1008.4 1008.3 0.0
19/04:00am 27.0 28.1 22.0 74 3.4 ESE 19 24 10 13 1007.9 1007.8 0.0
19/03:30am 26.4 28.3 21.4 74 3.3 S 13 20 7 11 1007.4 1007.3 0.0
19/03:00am 26.7 28.2 21.2 72 3.7 N 15 19 8 10 1006.4 1006.3 0.0
19/02:30am 26.9 28.4 21.2 71 3.8 N 15 19 8 10 1006.5 1006.4 0.0
19/02:00am 27.0 28.0 21.1 70 3.9 N 17 19 9 10 1006.5 1006.4 0.0
19/01:30am 27.0 28.5 21.3 71 3.8 N 15 19 8 10 1006.8 1006.7 0.0
19/01:00am 27.1 28.2 21.2 70 3.9 N 17 20 9 11 1007.2 1007.1 0.0
19/12:30am 27.2 27.7 21.2 69 4.0 N 20 26 11 14 1007.5 1007.4 0.0
19/12:00am 27.1 27.8 21.6 72 3.7 NNW 20 26 11 14 1007.9 1007.8 0.0
 
Date/Time
EST
Temp
°C
App
Temp
°C
Dew
Point
°C
Rel
Hum
%
Delta-T
°C
Wind Press
QNH
hPa
Press
MSL
hPa
Rain since
9am
mm
Dir  Spd
km/h
Gust
km/h
Spd
kts
Gust
kts
18/11:30pm 27.2 28.6 21.9 73 3.6 NNW 17 26 9 14 1008.1 1008.0 0.0
18/11:00pm 27.4 28.5 22.4 74 3.4 N 20 26 11 14 1008.4 1008.3 0.0
18/10:30pm 27.5 29.0 22.7 75 3.3 N 19 26 10 14 1008.6 1008.5 0.0
18/10:00pm 27.6 28.7 23.0 76 3.1 N 22 30 12 16 1008.9 1008.8 0.0
18/09:30pm 27.7 29.2 23.1 76 3.1 N 20 26 11 14 1009.0 1008.9 0.0
18/09:00pm 27.7 28.8 23.1 76 3.1 N 22 30 12 16 1008.8 1008.7 0.0
18/08:30pm 27.7 28.0 22.9 75 3.3 N 26 30 14 16 1008.8 1008.7 0.0
18/08:00pm 27.9 28.9 22.8 74 3.5 N 22 28 12 15 1008.7 1008.6 0.0
18/07:30pm 28.0 28.1 22.5 72 3.7 N 26 33 14 18 1008.5 1008.4 0.0
18/07:00pm 28.2 27.1 22.4 71 3.9 N 32 37 17 20 1008.2 1008.1 0.0
18/06:30pm 28.7 26.0 22.0 67 4.5 N 39 46 21 25 1008.2 1008.1 0.0
18/06:00pm 28.9 25.8 21.9 66 4.7 N 41 48 22 26 1008.0 1007.9 0.0
18/05:30pm 29.4 26.4 22.1 65 4.9 NNE 41 46 22 25 1007.9 1007.8 0.0
18/05:00pm 29.9 27.3 22.1 63 5.3 NNE 39 43 21 23 1007.9 1007.8 0.0
18/04:30pm 30.0 27.3 21.9 62 5.5 NNE 39 46 21 25 1007.9 1007.8 0.0
18/04:00pm 29.9 27.9 21.8 62 5.5 NNE 35 39 19 21 1007.9 1007.8 0.0
18/03:30pm 30.4 28.9 21.8 60 5.8 NNE 32 39 17 21 1008.4 1008.3 0.0
18/03:00pm 30.8 29.0 21.6 58 6.2 NE 33 37 18 20 1008.7 1008.6 0.0
18/02:30pm 31.3 29.2 20.9 54 7.0 NE 33 39 18 21 1009.2 1009.1 0.0
18/02:00pm 31.5 29.5 20.8 53 7.2 NE 32 39 17 21 1009.7 1009.6 0.0
18/01:30pm 31.6 29.9 21.7 55 6.7 NE 33 39 18 21 1010.1 1010.0 0.0
18/01:00pm 31.3 29.7 21.5 56 6.6 NE 32 35 17 19 1010.5 1010.4 0.0
18/12:30pm 31.2 29.0 20.8 54 6.9 NE 33 39 18 21 1011.0 1010.9 0.0
18/12:00pm 31.1 28.9 20.7 54 6.9 NE 33 39 18 21 1011.4 1011.3 0.0
18/11:30am 32.5 29.7 18.3 43 9.2 NE 30 33 16 18 1011.9 1011.8 0.0
18/11:00am 31.9 30.1 17.8 43 9.0 NE 24 30 13 16 1012.4 1012.3 0.0
18/10:30am 31.4 30.3 17.3 43 9.0 N 19 28 10 15 1012.9 1012.8 0.0
18/10:00am 30.7 30.2 17.7 45 8.3 NNW 17 24 9 13 1013.2 1013.1 0.0
18/09:30am 29.3 28.5 17.2 48 7.6 NNW 17 24 9 13 1013.7 1013.6 0.0
18/09:00am 28.3 28.6 17.8 53 6.7 NNW 13 20 7 11 1014.1 1014.0 0.0
18/08:30am 27.3 27.7 19.1 61 5.3 NNW 15 22 8 12 1014.3 1014.2 0.0
18/08:00am 26.7 27.2 18.3 60 5.3 NNW 13 17 7 9 1014.3 1014.2 0.0
18/07:30am 26.1 27.3 18.2 61 5.0 NW 9 13 5 7 1014.6 1014.5 0.0
18/07:00am 25.3 26.6 19.2 69 3.9 NNW 11 13 6 7 1014.6 1014.5 0.0
18/06:30am 24.5 26.2 20.2 77 2.8 NW 11 13 6 7 1014.4 1014.3 0.0
18/06:00am 23.0 24.7 19.4 80 2.3 WNW 9 11 5 6 1013.9 1013.8 0.0
18/05:30am 22.1 24.1 19.1 83 1.9 WNW 7 9 4 5 1013.7 1013.6 0.0
18/05:00am 22.2 23.5 19.2 83 1.9 NW 11 13 6 7 1013.5 1013.4 0.0
18/04:30am 23.1 24.1 19.5 80 2.3 NNW 13 17 7 9 1013.4 1013.3 0.0
18/04:00am 23.7 24.9 19.8 79 2.5 NNW 13 17 7 9 1013.3 1013.2 0.0
18/03:30am 24.3 24.7 19.8 76 2.9 N 17 22 9 12 1013.2 1013.1 0.0
18/03:00am 24.7 24.6 20.0 75 3.0 N 20 28 11 15 1013.2 1013.1 0.0
18/02:30am 24.7 24.6 20.0 75 3.0 N 20 32 11 17 1013.3 1013.2 0.0
18/02:00am 24.7 25.3 20.2 76 2.9 NNW 17 26 9 14 1013.6 1013.5 0.0
18/01:30am 24.9 25.5 20.2 75 3.1 NNW 17 26 9 14 1013.7 1013.6 0.0
18/01:00am 25.0 25.6 20.3 75 3.1 N 17 26 9 14 1013.9 1013.8 0.0
18/12:30am 25.2 25.9 20.5 75 3.1 N 17 24 9 13 1014.2 1014.1 0.0
18/12:00am 25.3 26.4 20.5 75 3.1 N 15 19 8 10 1014.6 1014.5 0.0
 
Date/Time
EST
Temp
°C
App
Temp
°C
Dew
Point
°C
Rel
Hum
%
Delta-T
°C
Wind Press
QNH
hPa
Press
MSL
hPa
Rain since
9am
mm
Dir  Spd
km/h
Gust
km/h
Spd
kts
Gust
kts
17/11:30pm 25.2 26.7 20.5 75 3.1 N 13 17 7 9 1015.0 1014.9 0.0
17/11:00pm 24.8 26.2 20.3 76 2.9 NNW 13 19 7 10 1015.4 1015.3 0.0
17/10:30pm 25.5 26.5 20.3 73 3.4 N 15 22 8 12 1015.7 1015.6 0.0
17/10:00pm 25.9 26.6 20.5 72 3.5 N 17 22 9 12 1015.7 1015.6 0.0
17/09:30pm 26.2 25.5 20.3 70 3.9 N 24 32 13 17 1015.7 1015.6 0.0
17/09:00pm 26.4 24.9 20.3 69 4.0 N 28 33 15 18 1015.6 1015.5 0.0
17/08:30pm 26.4 24.6 20.3 69 4.0 NNE 30 33 16 18 1015.5 1015.4 0.0
17/08:00pm 26.6 25.1 20.2 68 4.2 N 28 32 15 17 1015.5 1015.4 0.0
17/07:30pm 26.7 25.1 20.1 67 4.3 NNE 28 32 15 17 1015.4 1015.3 0.0
17/07:00pm 26.8 25.3 20.2 67 4.3 NNE 28 33 15 18 1015.3 1015.2 0.0
17/06:30pm 27.1 25.5 20.0 65 4.6 NNE 28 33 15 18 1015.0 1014.9 0.0
17/06:00pm 27.5 26.0 20.3 65 4.7 NNE 28 32 15 17 1014.7 1014.6 0.0
17/05:30pm 28.0 26.7 20.6 64 4.9 NNE 28 32 15 17 1014.6 1014.5 0.0
17/05:00pm 28.4 27.0 20.4 62 5.3 NNE 28 33 15 18 1014.4 1014.3 0.0
17/04:30pm 28.7 27.3 20.4 60 5.5 NNE 28 32 15 17 1014.3 1014.2 0.0
17/04:00pm 29.5 28.3 20.9 60 5.7 NNE 28 32 15 17 1014.4 1014.3 0.0
17/03:30pm 29.0 27.5 20.2 59 5.8 NNE 28 33 15 18 1014.4 1014.3 0.0
17/03:00pm 29.3 27.8 20.2 58 6.0 NNE 28 32 15 17 1014.5 1014.4 0.0
17/02:30pm 30.1 28.7 20.4 56 6.4 NE 28 32 15 17 1014.7 1014.6 0.0
17/02:00pm 29.6 28.2 19.6 55 6.5 NE 26 30 14 16 1014.9 1014.8 0.0
17/01:30pm 30.2 30.2 21.0 58 6.1 NE 22 26 12 14 1015.1 1015.0 0.0
17/01:00pm 30.4 30.0 20.9 57 6.3 NE 24 26 13 14 1015.3 1015.2 0.0
17/12:30pm 29.3 28.7 20.5 59 5.8 NE 24 28 13 15 1015.8 1015.7 0.0
17/12:00pm 29.8 30.2 20.9 59 5.9 NE 20 26 11 14 1016.2 1016.1 0.0

Other Formats:

Comma delimited format used in spreadsheet applications
http://www.bom.gov.au/fwo/IDQ60801/IDQ60801.95591.axf

JavaScript Object Notation format (JSON) in row-major order
http://www.bom.gov.au/fwo/IDQ60801/IDQ60801.95591.json